Time;durP1;ratioP1;P1;durP2;ratioP2;P2;SDS_P1;SDS_P2;PMS_P1;PMS_P2;Temp;Humidity;BMP_temperature;BMP_pressure;BME280_temperature;BME280_humidity;BME280_pressure;Samples;Min_cycle;Max_cycle;Signal;HPM_P1;HPM_P2
2023/03/01 00:00:11;;;;;;;15.47;13.87;;;;;;;;;;515310;28;1548;-75
2023/03/01 00:00:27;;;;;;;15.88;14.27;;;;;;;;;;519172;28;1179;-75
2023/03/01 00:00:46;;;;;;;16.23;14.30;;;;;;;;;;520069;28;1093;-75
2023/03/01 00:01:03;;;;;;;15.75;14.07;;;;;;;;;;520003;28;1435;-75
2023/03/01 00:01:22;;;;;;;15.88;14.27;;;;;;;;;;519655;28;1424;-74
2023/03/01 00:01:37;;;;;;;16.42;14.73;;;;;;;;;;521034;28;1416;-75
2023/03/01 00:01:53;;;;;;;16.02;14.35;;;;;;;;;;521040;28;1133;-73
2023/03/01 00:02:11;;;;;;;15.63;14.03;;;;;;;;;;520805;28;1089;-74
2023/03/01 00:02:26;;;;;;;15.93;14.27;;;;;;;;;;519271;28;1401;-75
2023/03/01 00:02:41;;;;;;;15.93;14.23;;;;;;;;;;521113;28;1469;-74
2023/03/01 00:02:57;;;;;;;16.00;14.20;;;;;;;;;;523348;28;1333;-74
2023/03/01 00:03:13;;;;;;;16.33;14.63;;;;;;;;;;520817;28;1278;-74
2023/03/01 00:03:28;;;;;;;16.40;14.70;;;;;;;;;;518730;28;1335;-75
2023/03/01 00:03:44;;;;;;;16.15;14.35;;;;;;;;;;516063;28;1261;-74
2023/03/01 00:04:02;;;;;;;16.13;14.13;;;;;;;;;;520937;28;1206;-74
2023/03/01 00:04:17;;;;;;;16.25;14.00;;;;;;;;;;518001;28;1361;-75
2023/03/01 00:04:32;;;;;;;17.08;14.43;;;;;;;;;;517583;28;1063;-75
2023/03/01 00:04:48;;;;;;;17.40;14.47;;;;;;;;;;514377;28;1394;-75
2023/03/01 00:05:04;;;;;;;16.93;14.53;;;;;;;;;;516688;28;1345;-75
2023/03/01 00:05:19;;;;;;;16.67;14.88;;;;;;;;;;517359;28;1241;-75
2023/03/01 00:05:34;;;;;;;16.23;14.52;;;;;;;;;;515485;28;1312;-75
2023/03/01 00:05:50;;;;;;;16.17;14.37;;;;;;;;;;517640;28;1213;-75
2023/03/01 00:06:06;;;;;;;16.27;14.60;;;;;;;;;;519309;28;1308;-74
2023/03/01 00:06:22;;;;;;;16.40;14.80;;;;;;;;;;518484;28;1197;-74
2023/03/01 00:06:37;;;;;;;16.70;15.00;;;;;;;;;;517566;28;1452;-75
2023/03/01 00:06:53;;;;;;;16.90;15.10;;;;;;;;;;519590;28;1215;-75
2023/03/01 00:07:09;;;;;;;16.65;14.85;;;;;;;;;;517692;28;1277;-75
2023/03/01 00:07:24;;;;;;;15.95;14.35;;;;;;;;;;513761;28;1227;-75
2023/03/01 00:07:40;;;;;;;15.90;14.20;;;;;;;;;;514138;28;1399;-75
2023/03/01 00:07:55;;;;;;;16.90;14.25;;;;;;;;;;519669;28;1231;-75
2023/03/01 00:08:10;;;;;;;16.17;14.00;;;;;;;;;;520291;28;1347;-74
2023/03/01 00:08:27;;;;;;;15.63;13.98;;;;;;;;;;519283;28;1422;-74
2023/03/01 00:08:42;;;;;;;16.52;14.32;;;;;;;;;;517864;28;1496;-74
2023/03/01 00:08:58;;;;;;;16.47;14.23;;;;;;;;;;517267;28;1306;-74
2023/03/01 00:09:14;;;;;;;15.60;14.00;;;;;;;;;;519959;28;1398;-74
2023/03/01 00:09:30;;;;;;;15.45;13.95;;;;;;;;;;519576;28;1358;-74
2023/03/01 00:09:45;;;;;;;15.53;13.93;;;;;;;;;;520659;28;1983;-75
2023/03/01 00:10:01;;;;;;;15.70;14.02;;;;;;;;;;517348;28;1334;-74
2023/03/01 00:10:16;;;;;;;15.93;14.33;;;;;;;;;;516430;28;1233;-75
2023/03/01 00:10:31;;;;;;;15.67;14.03;;;;;;;;;;517320;28;1344;-75
2023/03/01 00:10:47;;;;;;;16.08;13.82;;;;;;;;;;516338;28;1268;-75
2023/03/01 00:11:14;;;;;;;15.57;13.80;;;;;;;;;;517260;28;1305;-75
2023/03/01 00:11:31;;;;;;;17.50;15.18;;;;;;;;;;517186;28;1319;-75
2023/03/01 00:11:48;;;;;;;17.15;15.13;;;;;;;;;;516705;28;1323;-75
2023/03/01 00:12:04;;;;;;;16.17;14.50;;;;;;;;;;517662;28;1397;-75
2023/03/01 00:12:20;;;;;;;16.27;14.60;;;;;;;;;;519294;28;1314;-75
2023/03/01 00:12:36;;;;;;;15.95;14.35;;;;;;;;;;519448;28;1199;-75
2023/03/01 00:12:51;;;;;;;15.70;14.10;;;;;;;;;;519301;28;1527;-74
2023/03/01 00:13:07;;;;;;;16.00;14.30;;;;;;;;;;519602;28;1226;-75
2023/03/01 00:13:22;;;;;;;16.23;14.53;;;;;;;;;;518808;28;1475;-75
2023/03/01 00:13:38;;;;;;;15.73;14.13;;;;;;;;;;521296;28;1381;-75
2023/03/01 00:13:56;;;;;;;15.13;13.63;;;;;;;;;;518532;28;1460;-75
2023/03/01 00:14:12;;;;;;;15.05;13.55;;;;;;;;;;515960;28;1421;-75
2023/03/01 00:14:27;;;;;;;15.13;13.60;;;;;;;;;;514513;28;1236;-75
2023/03/01 00:14:43;;;;;;;15.23;13.60;;;;;;;;;;515689;28;1192;-75
2023/03/01 00:14:58;;;;;;;15.53;13.93;;;;;;;;;;514757;28;1389;-75
2023/03/01 00:15:14;;;;;;;16.03;14.43;;;;;;;;;;514589;28;1329;-75
2023/03/01 00:15:30;;;;;;;16.07;14.37;;;;;;;;;;516297;28;1342;-75
2023/03/01 00:15:45;;;;;;;15.95;14.32;;;;;;;;;;515848;28;1421;-75
2023/03/01 00:16:09;;;;;;;15.93;14.33;;;;;;;;;;516715;28;1300;-75
2023/03/01 00:16:27;;;;;;;15.20;13.70;;;;;;;;;;518160;28;1378;-74
2023/03/01 00:16:45;;;;;;;15.00;13.45;;;;;;;;;;521956;28;1267;-75
2023/03/01 00:17:01;;;;;;;14.55;13.05;;;;;;;;;;517976;28;1371;-75
2023/03/01 00:17:17;;;;;;;14.32;12.88;;;;;;;;;;516266;28;1279;-75
2023/03/01 00:17:32;;;;;;;14.30;12.85;;;;;;;;;;519311;28;1165;-75
2023/03/01 00:17:48;;;;;;;14.60;13.10;;;;;;;;;;519360;28;1200;-74
2023/03/01 00:18:03;;;;;;;14.70;13.20;;;;;;;;;;517215;28;1235;-74
2023/03/01 00:18:18;;;;;;;15.30;13.33;;;;;;;;;;514275;28;1288;-76
2023/03/01 00:18:34;;;;;;;14.95;13.30;;;;;;;;;;516800;28;1518;-76
2023/03/01 00:18:50;;;;;;;14.53;13.03;;;;;;;;;;514335;28;1163;-74
2023/03/01 00:19:09;;;;;;;14.35;12.85;;;;;;;;;;512389;28;1290;-73
2023/03/01 00:19:24;;;;;;;15.35;13.43;;;;;;;;;;514054;28;1427;-74
2023/03/01 00:19:40;;;;;;;14.75;13.20;;;;;;;;;;515251;28;1237;-74
2023/03/01 00:19:55;;;;;;;15.10;13.50;;;;;;;;;;517983;28;1272;-76
2023/03/01 00:20:11;;;;;;;14.77;13.13;;;;;;;;;;516638;28;1515;-74
2023/03/01 00:20:26;;;;;;;14.18;12.68;;;;;;;;;;517774;28;1442;-76
2023/03/01 00:20:48;;;;;;;14.30;12.85;;;;;;;;;;516424;28;1191;-74
2023/03/01 00:21:04;;;;;;;14.35;12.90;;;;;;;;;;517087;28;1273;-76
2023/03/01 00:21:21;;;;;;;14.50;13.00;;;;;;;;;;514796;28;1182;-74
2023/03/01 00:21:37;;;;;;;14.35;12.95;;;;;;;;;;516100;28;1315;-74
2023/03/01 00:21:52;;;;;;;14.53;13.03;;;;;;;;;;513294;28;1290;-76
2023/03/01 00:22:08;;;;;;;14.75;13.25;;;;;;;;;;516963;28;1409;-75
2023/03/01 00:22:23;;;;;;;14.63;13.13;;;;;;;;;;515377;28;1265;-74
2023/03/01 00:22:38;;;;;;;14.68;13.18;;;;;;;;;;512838;28;1243;-75
2023/03/01 00:22:53;;;;;;;14.60;13.10;;;;;;;;;;516396;28;1311;-75
2023/03/01 00:23:09;;;;;;;14.50;13.00;;;;;;;;;;517364;28;1465;-75
2023/03/01 00:23:25;;;;;;;15.00;13.37;;;;;;;;;;519371;28;1177;-75
2023/03/01 00:23:40;;;;;;;15.27;13.40;;;;;;;;;;521093;28;1308;-75
2023/03/01 00:23:56;;;;;;;13.95;12.52;;;;;;;;;;520761;28;1309;-75
2023/03/01 00:24:11;;;;;;;13.63;12.32;;;;;;;;;;519349;28;1276;-75
2023/03/01 00:24:27;;;;;;;14.60;13.10;;;;;;;;;;517783;28;1399;-75
2023/03/01 00:24:42;;;;;;;14.73;13.20;;;;;;;;;;519616;28;1264;-75
2023/03/01 00:24:57;;;;;;;14.30;12.90;;;;;;;;;;517539;28;1267;-75
2023/03/01 00:25:13;;;;;;;14.37;12.93;;;;;;;;;;516913;28;1212;-75
2023/03/01 00:25:28;;;;;;;14.35;12.88;;;;;;;;;;518592;28;1404;-75
2023/03/01 00:25:43;;;;;;;14.10;12.70;;;;;;;;;;516820;28;1498;-75
2023/03/01 00:25:59;;;;;;;14.27;12.73;;;;;;;;;;519375;28;1252;-75
2023/03/01 00:26:15;;;;;;;15.30;12.85;;;;;;;;;;518279;28;1332;-75
2023/03/01 00:26:30;;;;;;;14.73;12.98;;;;;;;;;;516411;28;1382;-75
2023/03/01 00:26:46;;;;;;;14.10;12.70;;;;;;;;;;515842;28;1347;-75
2023/03/01 00:27:01;;;;;;;14.35;12.85;;;;;;;;;;517465;28;1217;-75
2023/03/01 00:27:17;;;;;;;14.60;13.10;;;;;;;;;;515298;28;1421;-75
2023/03/01 00:27:32;;;;;;;14.20;12.80;;;;;;;;;;516281;28;1220;-75
2023/03/01 00:27:48;;;;;;;13.87;12.47;;;;;;;;;;519854;28;1308;-75
2023/03/01 00:28:04;;;;;;;13.93;12.48;;;;;;;;;;520403;28;1614;-74
2023/03/01 00:28:20;;;;;;;13.57;12.17;;;;;;;;;;519794;28;1476;-75
2023/03/01 00:28:35;;;;;;;13.30;12.00;;;;;;;;;;519504;28;1282;-75
2023/03/01 00:28:51;;;;;;;13.30;12.00;;;;;;;;;;519472;28;1327;-75
2023/03/01 00:29:07;;;;;;;12.73;11.43;;;;;;;;;;518503;28;1249;-75
2023/03/01 00:29:23;;;;;;;12.70;11.40;;;;;;;;;;517165;28;1353;-75
2023/03/01 00:29:39;;;;;;;13.40;12.00;;;;;;;;;;515743;28;1351;-75
2023/03/01 00:29:54;;;;;;;13.13;11.80;;;;;;;;;;513219;28;1976;-75
2023/03/01 00:30:10;;;;;;;13.00;11.70;;;;;;;;;;514715;28;1393;-75
2023/03/01 00:30:25;;;;;;;13.57;12.18;;;;;;;;;;517486;28;1356;-75
2023/03/01 00:30:41;;;;;;;14.07;12.53;;;;;;;;;;517571;28;1220;-75
2023/03/01 00:30:56;;;;;;;14.40;12.60;;;;;;;;;;516140;28;1168;-74
2023/03/01 00:31:18;;;;;;;14.05;12.27;;;;;;;;;;514751;28;1261;-75
2023/03/01 00:31:34;;;;;;;13.63;12.13;;;;;;;;;;517905;28;1399;-75
2023/03/01 00:31:49;;;;;;;15.00;12.63;;;;;;;;;;517559;28;1240;-75
2023/03/01 00:32:04;;;;;;;14.88;12.80;;;;;;;;;;516451;28;1367;-76
2023/03/01 00:32:20;;;;;;;14.33;12.83;;;;;;;;;;517308;28;1182;-74
2023/03/01 00:32:35;;;;;;;14.23;12.73;;;;;;;;;;518064;28;1200;-75
2023/03/01 00:32:50;;;;;;;13.88;12.48;;;;;;;;;;515581;28;1268;-75
2023/03/01 00:33:06;;;;;;;13.63;12.23;;;;;;;;;;516637;28;1375;-75
2023/03/01 00:33:21;;;;;;;14.25;12.75;;;;;;;;;;514443;28;1217;-74
2023/03/01 00:33:37;;;;;;;14.77;13.13;;;;;;;;;;517003;28;1200;-75
2023/03/01 00:33:56;;;;;;;14.83;13.33;;;;;;;;;;517126;28;1216;-75
2023/03/01 00:34:12;;;;;;;14.50;13.10;;;;;;;;;;518491;28;1452;-75
2023/03/01 00:34:27;;;;;;;14.57;13.07;;;;;;;;;;520916;28;1255;-75
2023/03/01 00:34:48;;;;;;;14.93;13.33;;;;;;;;;;519656;28;1280;-75
2023/03/01 00:35:05;;;;;;;14.88;13.15;;;;;;;;;;516083;28;1565;-75
2023/03/01 00:35:22;;;;;;;14.38;12.98;;;;;;;;;;516772;28;1501;-75
2023/03/01 00:35:38;;;;;;;13.95;12.55;;;;;;;;;;515656;28;1501;-75
2023/03/01 00:35:53;;;;;;;13.38;11.98;;;;;;;;;;512658;28;1295;-75
2023/03/01 00:36:10;;;;;;;13.87;12.47;;;;;;;;;;514043;28;1317;-74
2023/03/01 00:36:28;;;;;;;14.10;12.70;;;;;;;;;;512618;28;1304;-75
2023/03/01 00:36:43;;;;;;;13.75;12.35;;;;;;;;;;514480;28;1418;-75
2023/03/01 00:37:04;;;;;;;14.20;12.67;;;;;;;;;;516967;28;1396;-75
2023/03/01 00:37:21;;;;;;;15.02;13.02;;;;;;;;;;517357;28;1499;-74
2023/03/01 00:37:36;;;;;;;14.68;13.15;;;;;;;;;;521444;28;1270;-75
2023/03/01 00:37:57;;;;;;;14.50;13.07;;;;;;;;;;517357;28;1361;-75
2023/03/01 00:38:12;;;;;;;14.23;12.73;;;;;;;;;;516470;28;1290;-75
2023/03/01 00:38:28;;;;;;;13.88;12.45;;;;;;;;;;515228;28;1531;-75
2023/03/01 00:38:45;;;;;;;14.03;12.63;;;;;;;;;;517362;28;1325;-76
2023/03/01 00:39:01;;;;;;;14.52;13.05;;;;;;;;;;517197;28;1286;-75
2023/03/01 00:39:16;;;;;;;13.73;12.35;;;;;;;;;;516411;28;1228;-75
2023/03/01 00:39:33;;;;;;;12.95;11.65;;;;;;;;;;517244;28;1217;-75
2023/03/01 00:39:48;;;;;;;13.30;11.98;;;;;;;;;;517367;28;1296;-75
2023/03/01 00:40:05;;;;;;;13.18;11.88;;;;;;;;;;515474;28;1536;-75
2023/03/01 00:40:21;;;;;;;13.57;12.18;;;;;;;;;;518188;28;1401;-75
2023/03/01 00:40:36;;;;;;;14.30;12.80;;;;;;;;;;523716;28;1132;-74
2023/03/01 00:40:52;;;;;;;14.23;12.73;;;;;;;;;;521954;28;1355;-75
2023/03/01 00:41:10;;;;;;;14.10;12.67;;;;;;;;;;519649;28;1341;-75
2023/03/01 00:41:28;;;;;;;14.15;12.65;;;;;;;;;;517831;28;1288;-74
2023/03/01 00:41:44;;;;;;;13.65;12.15;;;;;;;;;;515025;28;1609;-75
2023/03/01 00:41:59;;;;;;;14.23;12.73;;;;;;;;;;517604;28;1040;-75
2023/03/01 00:42:16;;;;;;;15.73;13.33;;;;;;;;;;519450;28;1274;-75
2023/03/01 00:42:31;;;;;;;14.93;12.80;;;;;;;;;;514163;28;1257;-74
2023/03/01 00:42:46;;;;;;;14.45;12.95;;;;;;;;;;515736;28;1195;-74
2023/03/01 00:43:03;;;;;;;14.70;13.20;;;;;;;;;;516778;28;1716;-75
2023/03/01 00:43:18;;;;;;;14.35;12.85;;;;;;;;;;514934;28;1430;-75
2023/03/01 00:43:36;;;;;;;14.50;13.00;;;;;;;;;;514396;28;1283;-75
2023/03/01 00:43:52;;;;;;;14.70;13.10;;;;;;;;;;517388;28;1299;-75
2023/03/01 00:44:08;;;;;;;14.18;12.68;;;;;;;;;;517964;28;1440;-74
2023/03/01 00:44:23;;;;;;;13.68;12.38;;;;;;;;;;516625;28;1311;-75
2023/03/01 00:44:39;;;;;;;14.40;12.90;;;;;;;;;;514710;28;1330;-74
2023/03/01 00:44:54;;;;;;;15.05;13.20;;;;;;;;;;514416;28;1206;-75
2023/03/01 00:45:09;;;;;;;15.80;13.17;;;;;;;;;;513184;28;1229;-75
2023/03/01 00:45:26;;;;;;;14.65;12.88;;;;;;;;;;514133;28;1222;-75
2023/03/01 00:45:42;;;;;;;14.20;12.70;;;;;;;;;;514784;28;1182;-75
2023/03/01 00:46:01;;;;;;;14.70;13.20;;;;;;;;;;513005;28;1250;-75
2023/03/01 00:46:19;;;;;;;14.75;13.15;;;;;;;;;;516673;28;1330;-75
2023/03/01 00:46:35;;;;;;;14.65;13.15;;;;;;;;;;516570;28;1502;-75
2023/03/01 00:46:50;;;;;;;14.73;13.23;;;;;;;;;;514007;28;1224;-75
2023/03/01 00:47:05;;;;;;;14.35;12.95;;;;;;;;;;515414;28;1630;-75
2023/03/01 00:47:24;;;;;;;14.23;12.83;;;;;;;;;;516791;28;1307;-75
2023/03/01 00:47:39;;;;;;;14.20;12.80;;;;;;;;;;515087;28;1385;-75
2023/03/01 00:47:54;;;;;;;14.67;13.17;;;;;;;;;;517891;28;1357;-76
2023/03/01 00:48:10;;;;;;;15.33;13.73;;;;;;;;;;518978;28;1329;-75
2023/03/01 00:48:25;;;;;;;15.27;13.70;;;;;;;;;;521151;28;1196;-76
2023/03/01 00:48:41;;;;;;;14.98;13.48;;;;;;;;;;522702;28;1293;-76
2023/03/01 00:48:57;;;;;;;15.13;13.63;;;;;;;;;;519715;28;1308;-76
2023/03/01 00:49:13;;;;;;;15.47;13.47;;;;;;;;;;515810;28;1304;-76
2023/03/01 00:49:28;;;;;;;15.88;13.57;;;;;;;;;;516832;28;1204;-76
2023/03/01 00:49:43;;;;;;;15.32;13.73;;;;;;;;;;517769;28;1279;-76
2023/03/01 00:49:59;;;;;;;15.03;13.53;;;;;;;;;;517036;28;1912;-76
2023/03/01 00:50:14;;;;;;;15.15;13.65;;;;;;;;;;517808;28;1233;-75
2023/03/01 00:50:33;;;;;;;15.53;13.93;;;;;;;;;;518992;28;1347;-76
2023/03/01 00:50:51;;;;;;;15.70;14.07;;;;;;;;;;520984;28;1260;-76
2023/03/01 00:51:09;;;;;;;15.50;13.93;;;;;;;;;;523823;28;1318;-76
2023/03/01 00:51:27;;;;;;;15.45;13.82;;;;;;;;;;519461;28;1501;-76
2023/03/01 00:51:42;;;;;;;15.45;13.82;;;;;;;;;;516893;28;1402;-76
2023/03/01 00:51:58;;;;;;;15.73;14.03;;;;;;;;;;519771;28;1458;-76
2023/03/01 00:52:13;;;;;;;15.40;13.80;;;;;;;;;;521269;28;1444;-76
2023/03/01 00:52:28;;;;;;;15.47;13.90;;;;;;;;;;518942;28;1730;-76
2023/03/01 00:52:44;;;;;;;15.87;14.17;;;;;;;;;;519299;28;1264;-76
2023/03/01 00:53:00;;;;;;;15.90;14.20;;;;;;;;;;516920;28;1225;-76
2023/03/01 00:53:15;;;;;;;15.98;14.38;;;;;;;;;;517398;28;1436;-76
2023/03/01 00:53:30;;;;;;;15.47;13.87;;;;;;;;;;518485;28;1192;-76
2023/03/01 00:53:46;;;;;;;15.23;13.67;;;;;;;;;;517417;28;1624;-75
2023/03/01 00:54:02;;;;;;;16.00;14.30;;;;;;;;;;519304;28;1439;-75
2023/03/01 00:54:18;;;;;;;16.13;14.43;;;;;;;;;;519562;28;1496;-76
2023/03/01 00:54:33;;;;;;;16.30;14.40;;;;;;;;;;516916;28;1256;-76
2023/03/01 00:54:52;;;;;;;15.73;14.13;;;;;;;;;;518492;28;1411;-77
2023/03/01 00:55:07;;;;;;;15.60;14.00;;;;;;;;;;520980;28;1356;-76
2023/03/01 00:55:24;;;;;;;15.40;13.77;;;;;;;;;;520690;28;1199;-76
2023/03/01 00:55:39;;;;;;;15.52;13.93;;;;;;;;;;521007;28;1102;-76
2023/03/01 00:55:57;;;;;;;15.83;14.27;;;;;;;;;;519238;28;1339;-76
2023/03/01 00:56:14;;;;;;;15.60;14.02;;;;;;;;;;519110;28;1552;-76
2023/03/01 00:56:30;;;;;;;15.20;13.63;;;;;;;;;;521764;28;1287;-76
2023/03/01 00:56:45;;;;;;;15.38;13.82;;;;;;;;;;518452;28;1413;-76
2023/03/01 00:57:01;;;;;;;16.47;14.77;;;;;;;;;;517472;28;1211;-76
2023/03/01 00:57:16;;;;;;;16.17;14.53;;;;;;;;;;517289;28;1425;-76
2023/03/01 00:57:32;;;;;;;15.57;13.93;;;;;;;;;;519567;28;1163;-76
2023/03/01 00:57:47;;;;;;;15.57;13.83;;;;;;;;;;516848;28;1187;-75
2023/03/01 00:58:02;;;;;;;15.43;13.68;;;;;;;;;;517855;28;1211;-76
2023/03/01 00:58:18;;;;;;;15.60;13.83;;;;;;;;;;519474;28;1212;-76
2023/03/01 00:58:34;;;;;;;15.93;14.10;;;;;;;;;;517070;28;1316;-76
2023/03/01 00:58:50;;;;;;;15.38;13.77;;;;;;;;;;519572;28;1272;-75
2023/03/01 00:59:05;;;;;;;15.20;13.65;;;;;;;;;;518107;28;1036;-75
2023/03/01 00:59:21;;;;;;;15.23;13.63;;;;;;;;;;518786;28;1227;-76
2023/03/01 00:59:36;;;;;;;15.38;13.77;;;;;;;;;;517338;28;1196;-76
2023/03/01 00:59:52;;;;;;;15.53;13.93;;;;;;;;;;517523;28;1268;-76
2023/03/01 01:00:09;;;;;;;15.27;13.73;;;;;;;;;;516266;28;1281;-76
2023/03/01 01:00:26;;;;;;;15.65;14.05;;;;;;;;;;515917;28;1622;-76
2023/03/01 01:00:42;;;;;;;15.80;14.20;;;;;;;;;;520112;28;1430;-75
2023/03/01 01:00:57;;;;;;;15.40;13.90;;;;;;;;;;519150;28;1336;-76
2023/03/01 01:01:19;;;;;;;15.90;14.30;;;;;;;;;;517581;28;1318;-76
2023/03/01 01:01:34;;;;;;;16.40;14.70;;;;;;;;;;518874;28;1636;-76
2023/03/01 01:01:49;;;;;;;16.90;14.80;;;;;;;;;;519391;28;1215;-75
2023/03/01 01:02:05;;;;;;;16.73;15.00;;;;;;;;;;519781;28;1330;-76
2023/03/01 01:02:20;;;;;;;16.33;14.68;;;;;;;;;;519214;28;1268;-76
2023/03/01 01:02:37;;;;;;;15.98;14.38;;;;;;;;;;514178;28;1370;-76
2023/03/01 01:02:52;;;;;;;16.38;14.68;;;;;;;;;;517658;28;1240;-75
2023/03/01 01:03:07;;;;;;;16.50;14.80;;;;;;;;;;514830;28;1324;-76
2023/03/01 01:03:24;;;;;;;16.30;14.60;;;;;;;;;;518317;28;1377;-76
2023/03/01 01:03:40;;;;;;;16.33;14.57;;;;;;;;;;514577;28;1307;-76
2023/03/01 01:03:57;;;;;;;15.88;14.27;;;;;;;;;;517594;28;1252;-75
2023/03/01 01:04:14;;;;;;;15.60;14.00;;;;;;;;;;516737;28;1280;-75
2023/03/01 01:04:29;;;;;;;15.75;14.15;;;;;;;;;;518602;28;1548;-76
2023/03/01 01:04:45;;;;;;;15.47;13.97;;;;;;;;;;518018;28;1237;-76
2023/03/01 01:05:00;;;;;;;15.63;14.13;;;;;;;;;;516586;28;1233;-76
2023/03/01 01:05:20;;;;;;;15.97;14.47;;;;;;;;;;518947;28;1289;-75
2023/03/01 01:05:36;;;;;;;16.40;14.80;;;;;;;;;;519887;28;1398;-76
2023/03/01 01:05:52;;;;;;;16.50;14.80;;;;;;;;;;516589;28;1330;-75
2023/03/01 01:06:13;;;;;;;16.42;14.73;;;;;;;;;;517479;28;1320;-76
2023/03/01 01:06:35;;;;;;;16.80;15.10;;;;;;;;;;519002;28;1427;-75
2023/03/01 01:06:50;;;;;;;16.80;15.10;;;;;;;;;;520207;28;1366;-76
2023/03/01 01:07:05;;;;;;;17.15;15.35;;;;;;;;;;516752;28;1310;-76
2023/03/01 01:07:21;;;;;;;17.40;15.60;;;;;;;;;;517107;28;1287;-76
2023/03/01 01:07:36;;;;;;;16.83;15.13;;;;;;;;;;515940;28;1330;-75
2023/03/01 01:07:52;;;;;;;15.93;14.43;;;;;;;;;;517488;28;1216;-76
2023/03/01 01:08:07;;;;;;;15.97;14.47;;;;;;;;;;518742;28;1256;-76
2023/03/01 01:08:22;;;;;;;15.65;14.10;;;;;;;;;;517310;28;1255;-76
2023/03/01 01:08:37;;;;;;;15.30;13.80;;;;;;;;;;517442;28;1180;-76
2023/03/01 01:08:54;;;;;;;15.60;14.10;;;;;;;;;;516305;28;1198;-76
2023/03/01 01:09:18;;;;;;;16.15;14.55;;;;;;;;;;514998;28;1506;-75
2023/03/01 01:09:34;;;;;;;16.27;14.57;;;;;;;;;;516903;28;1597;-76
2023/03/01 01:09:49;;;;;;;16.25;14.65;;;;;;;;;;519933;28;1989;-76
2023/03/01 01:10:05;;;;;;;16.23;14.53;;;;;;;;;;523165;28;1199;-76
2023/03/01 01:10:21;;;;;;;16.45;14.75;;;;;;;;;;520966;28;1271;-76
2023/03/01 01:10:36;;;;;;;16.52;14.93;;;;;;;;;;517251;28;1280;-76
2023/03/01 01:10:52;;;;;;;16.67;15.03;;;;;;;;;;516907;28;1348;-76
2023/03/01 01:11:09;;;;;;;17.08;15.38;;;;;;;;;;519231;28;1260;-76
2023/03/01 01:11:27;;;;;;;17.13;15.43;;;;;;;;;;518159;28;1461;-76
2023/03/01 01:11:48;;;;;;;16.55;14.95;;;;;;;;;;518132;28;1281;-76
2023/03/01 01:12:04;;;;;;;15.65;14.20;;;;;;;;;;519908;28;1397;-75
2023/03/01 01:12:19;;;;;;;16.33;14.65;;;;;;;;;;521572;28;1245;-76
2023/03/01 01:12:35;;;;;;;15.77;14.15;;;;;;;;;;519994;28;1379;-76
2023/03/01 01:12:50;;;;;;;14.73;13.33;;;;;;;;;;519131;28;1310;-75
2023/03/01 01:13:05;;;;;;;15.30;13.90;;;;;;;;;;520172;28;1404;-76
2023/03/01 01:13:21;;;;;;;15.63;14.23;;;;;;;;;;521060;28;1228;-76
2023/03/01 01:13:38;;;;;;;16.00;14.50;;;;;;;;;;518050;28;1271;-75
2023/03/01 01:13:54;;;;;;;16.45;14.88;;;;;;;;;;514971;28;1405;-75
2023/03/01 01:14:09;;;;;;;16.77;15.18;;;;;;;;;;515414;28;1520;-76
2023/03/01 01:14:25;;;;;;;17.00;15.27;;;;;;;;;;515026;28;1111;-76
2023/03/01 01:14:40;;;;;;;16.70;14.90;;;;;;;;;;515404;28;1221;-76
2023/03/01 01:14:55;;;;;;;17.10;15.10;;;;;;;;;;515573;28;1279;-76
2023/03/01 01:15:13;;;;;;;16.83;15.07;;;;;;;;;;516943;28;1614;-76
2023/03/01 01:15:34;;;;;;;16.38;14.77;;;;;;;;;;518373;28;1421;-76
2023/03/01 01:15:49;;;;;;;15.98;14.38;;;;;;;;;;515246;28;1310;-76
2023/03/01 01:16:05;;;;;;;15.73;14.13;;;;;;;;;;518911;28;1306;-76
2023/03/01 01:16:22;;;;;;;16.10;14.40;;;;;;;;;;517572;28;1181;-76
2023/03/01 01:16:38;;;;;;;15.98;14.38;;;;;;;;;;519124;28;1408;-75
2023/03/01 01:16:53;;;;;;;16.02;14.43;;;;;;;;;;521415;28;1291;-76
2023/03/01 01:17:09;;;;;;;15.73;14.23;;;;;;;;;;520826;28;1198;-75
2023/03/01 01:17:24;;;;;;;15.67;14.17;;;;;;;;;;519566;28;1118;-75
2023/03/01 01:17:40;;;;;;;16.07;14.47;;;;;;;;;;519708;28;1424;-76
2023/03/01 01:17:56;;;;;;;16.17;14.68;;;;;;;;;;517379;28;1446;-75
2023/03/01 01:18:11;;;;;;;16.40;14.80;;;;;;;;;;515485;28;1154;-76
2023/03/01 01:18:26;;;;;;;16.40;14.70;;;;;;;;;;514443;28;1319;-75
2023/03/01 01:18:42;;;;;;;16.57;14.87;;;;;;;;;;516022;28;1346;-76
2023/03/01 01:18:58;;;;;;;16.65;14.98;;;;;;;;;;515375;28;1584;-76
2023/03/01 01:19:14;;;;;;;16.30;14.70;;;;;;;;;;518460;28;1447;-75
2023/03/01 01:19:30;;;;;;;16.20;14.55;;;;;;;;;;518177;28;1413;-76
2023/03/01 01:19:46;;;;;;;15.60;14.05;;;;;;;;;;515151;28;1382;-76
2023/03/01 01:20:01;;;;;;;15.55;14.05;;;;;;;;;;516463;28;1334;-76
2023/03/01 01:20:16;;;;;;;15.90;14.30;;;;;;;;;;517563;28;1153;-76
2023/03/01 01:20:32;;;;;;;15.40;13.90;;;;;;;;;;518589;28;1393;-76
2023/03/01 01:20:48;;;;;;;16.30;14.60;;;;;;;;;;519342;28;1282;-76
2023/03/01 01:21:05;;;;;;;16.33;14.63;;;;;;;;;;519953;28;1437;-76
2023/03/01 01:21:22;;;;;;;15.45;13.95;;;;;;;;;;523315;28;1373;-76
2023/03/01 01:21:38;;;;;;;15.50;14.00;;;;;;;;;;520944;28;1402;-76
2023/03/01 01:21:53;;;;;;;15.40;13.90;;;;;;;;;;519773;28;1294;-76
2023/03/01 01:22:09;;;;;;;14.90;13.47;;;;;;;;;;514251;28;1468;-76
2023/03/01 01:22:24;;;;;;;14.88;13.40;;;;;;;;;;519084;28;1208;-76
2023/03/01 01:22:39;;;;;;;15.93;14.33;;;;;;;;;;516701;28;1230;-76
2023/03/01 01:22:55;;;;;;;16.17;14.48;;;;;;;;;;518374;28;1269;-76
2023/03/01 01:23:10;;;;;;;15.90;14.17;;;;;;;;;;518275;28;1289;-76
2023/03/01 01:23:26;;;;;;;16.00;14.30;;;;;;;;;;518571;28;1274;-76
2023/03/01 01:23:43;;;;;;;16.57;14.80;;;;;;;;;;517876;28;1184;-76
2023/03/01 01:23:59;;;;;;;16.50;14.80;;;;;;;;;;519483;28;1786;-76
2023/03/01 01:24:14;;;;;;;15.45;13.95;;;;;;;;;;515785;28;1213;-76
2023/03/01 01:24:30;;;;;;;15.00;13.60;;;;;;;;;;519910;28;1307;-76
2023/03/01 01:24:45;;;;;;;15.20;13.70;;;;;;;;;;514683;28;1318;-75
2023/03/01 01:25:00;;;;;;;15.70;14.10;;;;;;;;;;518868;28;1312;-76
2023/03/01 01:25:16;;;;;;;15.67;14.07;;;;;;;;;;517577;28;1390;-75
2023/03/01 01:25:34;;;;;;;15.20;13.70;;;;;;;;;;515367;28;1256;-76
2023/03/01 01:25:49;;;;;;;15.60;13.90;;;;;;;;;;514025;28;1401;-75
2023/03/01 01:26:26;;;;;;;15.60;14.00;;;;;;;;;;514547;28;1288;-74
2023/03/01 01:26:43;;;;;;;16.27;14.57;;;;;;;;;;516012;28;1346;-75
2023/03/01 01:26:58;;;;;;;16.08;14.43;;;;;;;;;;515489;28;1629;-76
2023/03/01 01:27:13;;;;;;;15.40;13.90;;;;;;;;;;515993;28;1352;-75
2023/03/01 01:27:29;;;;;;;15.47;13.97;;;;;;;;;;515458;28;1214;-76
2023/03/01 01:27:45;;;;;;;15.68;14.07;;;;;;;;;;516577;28;1264;-76
2023/03/01 01:28:00;;;;;;;14.88;13.40;;;;;;;;;;517103;28;1504;-76
2023/03/01 01:28:15;;;;;;;15.00;13.50;;;;;;;;;;519095;28;1394;-76
2023/03/01 01:28:31;;;;;;;15.53;14.03;;;;;;;;;;519697;28;1230;-76
2023/03/01 01:28:47;;;;;;;15.93;14.32;;;;;;;;;;517554;28;1273;-76
2023/03/01 01:29:05;;;;;;;16.02;14.43;;;;;;;;;;518989;28;1456;-76
2023/03/01 01:29:20;;;;;;;16.50;14.77;;;;;;;;;;517817;28;1628;-76
2023/03/01 01:29:36;;;;;;;16.43;14.63;;;;;;;;;;517714;28;1244;-76
2023/03/01 01:29:53;;;;;;;16.20;14.60;;;;;;;;;;519433;28;1910;-76
2023/03/01 01:30:08;;;;;;;16.02;14.43;;;;;;;;;;518618;28;1483;-76
2023/03/01 01:30:24;;;;;;;15.13;13.60;;;;;;;;;;519679;28;1504;-76
2023/03/01 01:30:39;;;;;;;15.83;14.27;;;;;;;;;;518955;28;1360;-76
2023/03/01 01:30:54;;;;;;;16.40;14.73;;;;;;;;;;519002;28;1287;-76
2023/03/01 01:31:10;;;;;;;16.27;14.57;;;;;;;;;;517768;28;1177;-76
2023/03/01 01:31:26;;;;;;;16.03;14.43;;;;;;;;;;519451;28;1304;-76
2023/03/01 01:31:43;;;;;;;16.08;14.48;;;;;;;;;;516217;28;1299;-76
2023/03/01 01:31:58;;;;;;;16.35;14.73;;;;;;;;;;518081;28;1547;-76
2023/03/01 01:32:13;;;;;;;16.17;14.48;;;;;;;;;;520233;28;1435;-75
2023/03/01 01:32:29;;;;;;;16.40;14.70;;;;;;;;;;519905;28;1295;-76
2023/03/01 01:32:44;;;;;;;16.43;14.73;;;;;;;;;;516181;28;1654;-76
2023/03/01 01:32:59;;;;;;;16.35;14.65;;;;;;;;;;513808;28;1286;-76
2023/03/01 01:33:15;;;;;;;16.43;14.67;;;;;;;;;;513858;28;1363;-76
2023/03/01 01:33:31;;;;;;;16.20;14.47;;;;;;;;;;515155;28;1202;-76
2023/03/01 01:33:46;;;;;;;16.70;15.00;;;;;;;;;;517751;28;1240;-75
2023/03/01 01:34:05;;;;;;;16.40;14.80;;;;;;;;;;518669;28;1359;-76
2023/03/01 01:34:22;;;;;;;15.65;14.10;;;;;;;;;;521186;28;1247;-76
2023/03/01 01:34:38;;;;;;;15.82;14.23;;;;;;;;;;519872;28;1106;-76
2023/03/01 01:34:53;;;;;;;15.55;14.05;;;;;;;;;;519064;28;1250;-76
2023/03/01 01:35:09;;;;;;;16.00;14.40;;;;;;;;;;518642;28;1263;-76
2023/03/01 01:35:24;;;;;;;16.07;14.47;;;;;;;;;;519499;28;1361;-76
2023/03/01 01:35:39;;;;;;;15.68;14.07;;;;;;;;;;515004;28;1266;-76
2023/03/01 01:35:55;;;;;;;16.07;14.40;;;;;;;;;;517444;28;1180;-76
2023/03/01 01:36:11;;;;;;;15.90;14.32;;;;;;;;;;519630;28;1425;-76
2023/03/01 01:36:26;;;;;;;15.15;13.65;;;;;;;;;;517593;28;1437;-75
2023/03/01 01:36:42;;;;;;;15.57;13.97;;;;;;;;;;514217;28;1145;-75
2023/03/01 01:37:02;;;;;;;15.80;14.20;;;;;;;;;;515546;28;1416;-75